Venetiko — D5DR5 — position and weather

sailwx.info

Track history (hours):
 
Tides and Currents Weather Stations Pressure Air Temp Water Temp Dewpoint Dewpoint Depression Visibility Wind Speed Wind Dir Waves Ship Positions

Venetiko

Last reported at 2018-Jan-20 22:53 UTC. Time now 2018-Jan-20 23:11 UTC.
Position N 29°41' W 094°60'.

Length 280 m; draft 11.4 m.

Type: Ship (hazmat cat D). MMSI: 636015952.

Date/timePositionNaut miles runAvg speedWind from/ knotsBaromVisibWave heightAir tempDewpointWater temp
2018-Jan-20 22:53N 29°41' W 094°60'0 0.0
2018-Jan-20 22:26N 29°41' W 094°60'0 0.0
2018-Jan-20 21:59N 29°41' W 094°60'0 0.0
2018-Jan-20 21:29N 29°41' W 094°60'0 0.0
2018-Jan-20 20:59N 29°41' W 094°60'0 0.0
2018-Jan-20 20:29N 29°41' W 094°60'0 0.0
2018-Jan-20 19:59N 29°41' W 094°60'0 0.0
2018-Jan-20 19:29N 29°41' W 094°60'0 0.0
2018-Jan-20 18:59N 29°41' W 094°60'0 0.0
2018-Jan-20 18:29N 29°41' W 094°60'0 0.0
2018-Jan-20 17:59N 29°41' W 094°60'0 0.0
2018-Jan-20 17:29N 29°41' W 094°60'0 0.0
2018-Jan-20 16:59N 29°41' W 094°60'0 0.0
2018-Jan-20 16:29N 29°41' W 094°60'0 0.0
2018-Jan-20 15:59N 29°41' W 094°60'0 0.0
2018-Jan-20 15:29N 29°41' W 094°60'0 0.0
2018-Jan-20 14:59N 29°41' W 094°60'0 0.0
2018-Jan-20 14:29N 29°41' W 094°60'0 0.0
2018-Jan-20 13:59N 29°41' W 094°60'0 0.0
2018-Jan-20 13:29N 29°41' W 094°60'0 0.0
2018-Jan-20 12:59N 29°41' W 094°60'0 0.0
2018-Jan-20 12:29N 29°41' W 094°60'0 0.0
2018-Jan-20 11:50N 29°41' W 094°60'0 0.0
2018-Jan-20 11:29N 29°41' W 094°60'0 0.0
2018-Jan-20 10:59N 29°41' W 094°60'0 0.0
2018-Jan-20 10:29N 29°41' W 094°60'0 0.0
2018-Jan-20 09:59N 29°41' W 094°60'0 0.0
2018-Jan-20 09:29N 29°41' W 094°60'0 0.0
2018-Jan-20 08:59N 29°41' W 094°60'0 0.0
2018-Jan-20 08:29N 29°41' W 094°60'0 0.0
2018-Jan-20 07:59N 29°41' W 094°60'0 0.0
2018-Jan-20 07:29N 29°41' W 094°60'0 0.0
2018-Jan-20 06:59N 29°41' W 094°60'0 0.0
2018-Jan-20 06:29N 29°41' W 094°60'0 0.0
2018-Jan-20 05:59N 29°41' W 094°60'0 0.0
2018-Jan-20 05:26N 29°41' W 094°60'0 0.0
2018-Jan-20 04:59N 29°41' W 094°60'0 0.0
2018-Jan-20 04:29N 29°41' W 094°60'0 0.9
2018-Jan-20 04:00N 29°41' W 094°59'4 6.9
2018-Jan-20 03:30N 29°38' W 094°58'4 9.0
2018-Jan-20 03:00N 29°34' W 094°55'612.5
2018-Jan-20 02:30N 29°29' W 094°51'713.3
2018-Jan-20 02:00N 29°23' W 094°48'17 1.5
2018-Jan-19 14:44N 29°16' W 094°31'0 0.0
2018-Jan-19 10:41N 29°16' W 094°31'0 0.0
2018-Jan-19 10:26N 29°16' W 094°31'  
2018-Jan-11 15:03N 25°10' W 079°42'215.9
2018-Jan-11 14:56N 25°12' W 079°43'615.3
2018-Jan-11 14:30N 25°18' W 079°46'715.0
2018-Jan-11 14:00N 25°25' W 079°49'714.6
2018-Jan-11 13:31N 25°31' W 079°52'714.7
2018-Jan-11 13:00N 25°38' W 079°56'714.8
2018-Jan-11 12:30N 25°44' W 080°00'4 9.0
2018-Jan-11 12:00N 25°46' W 080°05'4 7.1
2018-Jan-11 11:30N 25°46' W 080°09'0 0.1
2018-Jan-11 10:55N 25°46' W 080°09'0 0.0
2018-Jan-11 10:25N 25°46' W 080°09'0 0.0
2018-Jan-11 09:58N 25°46' W 080°09'0 0.0
2018-Jan-11 09:25N 25°46' W 080°09'0 0.0
2018-Jan-11 08:55N 25°46' W 080°09'0 0.0
2018-Jan-11 08:28N 25°46' W 080°09'0 0.0
2018-Jan-11 07:55N 25°46' W 080°09'0 0.0
2018-Jan-11 07:28N 25°46' W 080°09'0 0.0
2018-Jan-11 06:58N 25°46' W 080°09'0 0.0
2018-Jan-11 06:28N 25°46' W 080°09'0 0.0
2018-Jan-11 05:58N 25°46' W 080°09'0 0.0
2018-Jan-11 05:28N 25°46' W 080°09'0 0.0
2018-Jan-11 04:58N 25°46' W 080°09'0 0.0
2018-Jan-11 04:28N 25°46' W 080°09'0 0.0
2018-Jan-11 03:58N 25°46' W 080°09'0 0.0
2018-Jan-11 03:28N 25°46' W 080°09'0 0.0
2018-Jan-11 02:58N 25°46' W 080°09'0 0.0
2018-Jan-11 02:28N 25°46' W 080°09'0 0.0
2018-Jan-11 01:58N 25°46' W 080°09'0 0.0
2018-Jan-11 01:28N 25°46' W 080°09'0 0.1
2018-Jan-11 01:00N 25°46' W 080°09'1 1.6
2018-Jan-11 00:30N 25°46' W 080°10'1 2.4
2018-Jan-11 00:00N 25°46' W 080°09'3 6.1
2018-Jan-10 23:30N 25°46' W 080°05'4 7.9
2018-Jan-10 23:00N 25°46' W 080°01'  
Track history (hours):
 
Tides and Currents Weather Stations Pressure Air Temp Water Temp Dewpoint Dewpoint Depression Visibility Wind Speed Wind Dir Waves Ship Positions

Venetiko

Last reported at 2018-Jan-20 22:53 UTC. Time now 2018-Jan-20 23:11 UTC.
Position N 29°41' W 094°60'.

Length 280 m; draft 11.4 m.

Type: Ship (hazmat cat D). MMSI: 636015952.

Date/timePositionNaut miles runAvg speedWind from/ knotsBaromVisibWave heightAir tempDewpointWater temp
2018-Jan-20 22:53N 29°41' W 094°60'0 0.0
2018-Jan-20 22:26N 29°41' W 094°60'0 0.0
2018-Jan-20 21:59N 29°41' W 094°60'0 0.0
2018-Jan-20 21:29N 29°41' W 094°60'0 0.0
2018-Jan-20 20:59N 29°41' W 094°60'0 0.0
2018-Jan-20 20:29N 29°41' W 094°60'0 0.0
2018-Jan-20 19:59N 29°41' W 094°60'0 0.0
2018-Jan-20 19:29N 29°41' W 094°60'0 0.0
2018-Jan-20 18:59N 29°41' W 094°60'0 0.0
2018-Jan-20 18:29N 29°41' W 094°60'0 0.0
2018-Jan-20 17:59N 29°41' W 094°60'0 0.0
2018-Jan-20 17:29N 29°41' W 094°60'0 0.0
2018-Jan-20 16:59N 29°41' W 094°60'0 0.0
2018-Jan-20 16:29N 29°41' W 094°60'0 0.0
2018-Jan-20 15:59N 29°41' W 094°60'0 0.0
2018-Jan-20 15:29N 29°41' W 094°60'0 0.0
2018-Jan-20 14:59N 29°41' W 094°60'0 0.0
2018-Jan-20 14:29N 29°41' W 094°60'0 0.0
2018-Jan-20 13:59N 29°41' W 094°60'0 0.0
2018-Jan-20 13:29N 29°41' W 094°60'0 0.0
2018-Jan-20 12:59N 29°41' W 094°60'0 0.0
2018-Jan-20 12:29N 29°41' W 094°60'0 0.0
2018-Jan-20 11:50N 29°41' W 094°60'0 0.0
2018-Jan-20 11:29N 29°41' W 094°60'0 0.0
2018-Jan-20 10:59N 29°41' W 094°60'0 0.0
2018-Jan-20 10:29N 29°41' W 094°60'0 0.0
2018-Jan-20 09:59N 29°41' W 094°60'0 0.0
2018-Jan-20 09:29N 29°41' W 094°60'0 0.0
2018-Jan-20 08:59N 29°41' W 094°60'0 0.0
2018-Jan-20 08:29N 29°41' W 094°60'0 0.0
2018-Jan-20 07:59N 29°41' W 094°60'0 0.0
2018-Jan-20 07:29N 29°41' W 094°60'0 0.0
2018-Jan-20 06:59N 29°41' W 094°60'0 0.0
2018-Jan-20 06:29N 29°41' W 094°60'0 0.0
2018-Jan-20 05:59N 29°41' W 094°60'0 0.0
2018-Jan-20 05:26N 29°41' W 094°60'0 0.0
2018-Jan-20 04:59N 29°41' W 094°60'0 0.0
2018-Jan-20 04:29N 29°41' W 094°60'0 0.9
2018-Jan-20 04:00N 29°41' W 094°59'4 6.9
2018-Jan-20 03:30N 29°38' W 094°58'4 9.0
2018-Jan-20 03:00N 29°34' W 094°55'612.5
2018-Jan-20 02:30N 29°29' W 094°51'713.3
2018-Jan-20 02:00N 29°23' W 094°48'17 1.5
2018-Jan-19 14:44N 29°16' W 094°31'0 0.0
2018-Jan-19 10:41N 29°16' W 094°31'0 0.0
2018-Jan-19 10:26N 29°16' W 094°31'  
2018-Jan-11 15:03N 25°10' W 079°42'215.9
2018-Jan-11 14:56N 25°12' W 079°43'615.3
2018-Jan-11 14:30N 25°18' W 079°46'715.0
2018-Jan-11 14:00N 25°25' W 079°49'714.6
2018-Jan-11 13:31N 25°31' W 079°52'714.7
2018-Jan-11 13:00N 25°38' W 079°56'714.8
2018-Jan-11 12:30N 25°44' W 080°00'4 9.0
2018-Jan-11 12:00N 25°46' W 080°05'4 7.1
2018-Jan-11 11:30N 25°46' W 080°09'0 0.1
2018-Jan-11 10:55N 25°46' W 080°09'0 0.0
2018-Jan-11 10:25N 25°46' W 080°09'0 0.0
2018-Jan-11 09:58N 25°46' W 080°09'0 0.0
2018-Jan-11 09:25N 25°46' W 080°09'0 0.0
2018-Jan-11 08:55N 25°46' W 080°09'0 0.0
2018-Jan-11 08:28N 25°46' W 080°09'0 0.0
2018-Jan-11 07:55N 25°46' W 080°09'0 0.0
2018-Jan-11 07:28N 25°46' W 080°09'0 0.0
2018-Jan-11 06:58N 25°46' W 080°09'0 0.0
2018-Jan-11 06:28N 25°46' W 080°09'0 0.0
2018-Jan-11 05:58N 25°46' W 080°09'0 0.0
2018-Jan-11 05:28N 25°46' W 080°09'0 0.0
2018-Jan-11 04:58N 25°46' W 080°09'0 0.0
2018-Jan-11 04:28N 25°46' W 080°09'0 0.0
2018-Jan-11 03:58N 25°46' W 080°09'0 0.0
2018-Jan-11 03:28N 25°46' W 080°09'0 0.0
2018-Jan-11 02:58N 25°46' W 080°09'0 0.0
2018-Jan-11 02:28N 25°46' W 080°09'0 0.0
2018-Jan-11 01:58N 25°46' W 080°09'0 0.0
2018-Jan-11 01:28N 25°46' W 080°09'0 0.1
2018-Jan-11 01:00N 25°46' W 080°09'1 1.6
2018-Jan-11 00:30N 25°46' W 080°10'1 2.4
2018-Jan-11 00:00N 25°46' W 080°09'3 6.1
2018-Jan-10 23:30N 25°46' W 080°05'4 7.9
2018-Jan-10 23:00N 25°46' W 080°01'  

Dump ship's entire track history